createdAt,value
2023-03-15T00:20:42.920Z,0.20
2023-03-15T00:25:34.802Z,0.10
2023-03-15T00:30:27.090Z,0.10
2023-03-15T00:35:18.844Z,0.10
2023-03-15T00:40:12.140Z,0.77
2023-03-15T00:45:04.959Z,0.10
2023-03-15T00:49:56.711Z,0.10
2023-03-15T00:54:53.339Z,0.60
2023-03-15T00:59:45.173Z,0.93
2023-03-15T01:04:36.856Z,1.37
2023-03-15T01:09:28.638Z,0.17
2023-03-15T01:14:20.316Z,0.47
2023-03-15T01:19:13.585Z,1.13
2023-03-15T01:24:05.650Z,2.37
2023-03-15T01:28:57.424Z,1.70
2023-03-15T01:33:49.276Z,0.60
2023-03-15T01:38:41.344Z,0.40
2023-03-15T01:43:33.936Z,0.67
2023-03-15T01:48:36.855Z,1.53
2023-03-15T01:53:32.828Z,1.67
2023-03-15T01:58:28.248Z,4.07
2023-03-15T02:14:17.350Z,1.77
2023-03-15T02:24:51.173Z,0.93
2023-03-15T02:29:42.956Z,1.03
2023-03-15T02:34:34.648Z,2.40
2023-03-15T02:39:27.107Z,1.27
2023-03-15T02:44:24.145Z,1.60
2023-03-15T02:49:21.406Z,1.53
2023-03-15T03:09:40.847Z,2.90
2023-03-15T03:14:32.540Z,2.10
2023-03-15T03:19:25.528Z,1.50
2023-03-15T03:24:17.331Z,1.43
2023-03-15T03:29:09.018Z,0.97
2023-03-15T03:34:00.707Z,3.37
2023-03-15T03:38:54.021Z,3.00
2023-03-15T03:43:45.701Z,4.30
2023-03-15T03:48:37.524Z,0.57
2023-03-15T03:53:29.262Z,1.63
2023-03-15T03:58:22.022Z,0.87
2023-03-15T04:03:13.765Z,2.50
2023-03-15T04:08:05.675Z,1.50
2023-03-15T04:12:57.503Z,1.57
2023-03-15T04:17:55.771Z,4.07
2023-03-15T04:33:05.209Z,4.03
2023-03-15T04:37:57.606Z,2.40
2023-03-15T04:42:57.010Z,4.27
2023-03-15T04:47:50.983Z,2.60
2023-03-15T04:52:44.603Z,5.57
2023-03-15T04:57:37.315Z,3.00
2023-03-15T05:02:28.987Z,2.67
2023-03-15T05:07:20.646Z,3.70
2023-03-15T05:12:13.407Z,2.93
2023-03-15T05:17:05.535Z,2.53
2023-03-15T05:21:57.206Z,2.97
2023-03-15T05:26:48.916Z,3.53
2023-03-15T05:31:40.890Z,3.17
2023-03-15T05:36:34.233Z,3.33
2023-03-15T05:41:25.911Z,6.40
2023-03-15T05:46:18.565Z,3.87
2023-03-15T05:51:10.389Z,2.90
2023-03-15T05:56:02.313Z,2.67
2023-03-15T06:00:54.035Z,3.10
2023-03-15T06:15:58.616Z,3.67
2023-03-15T06:26:18.737Z,6.83
2023-03-15T06:31:14.965Z,6.80
2023-03-15T06:36:09.959Z,7.50
2023-03-15T06:41:01.714Z,8.87
2023-03-15T06:45:56.565Z,6.17
2023-03-15T06:50:48.939Z,6.57
2023-03-15T06:55:40.624Z,6.20
2023-03-15T07:00:32.322Z,7.80
2023-03-15T07:05:24.534Z,5.07
2023-03-15T07:10:17.454Z,6.47
2023-03-15T07:15:10.174Z,4.20
2023-03-15T07:20:02.335Z,4.37
2023-03-15T07:24:54.651Z,3.23
2023-03-15T07:29:46.886Z,5.27
2023-03-15T07:34:39.777Z,4.77
2023-03-15T07:39:33.014Z,2.00
2023-03-15T07:44:30.902Z,3.90
2023-03-15T07:54:31.548Z,4.83
2023-03-15T07:59:23.207Z,7.53
2023-03-15T08:04:14.875Z,1.87
2023-03-15T08:09:06.813Z,3.57
2023-03-15T08:13:58.599Z,6.27
2023-03-15T08:23:57.167Z,3.90
2023-03-15T08:33:54.913Z,1.73
2023-03-15T08:38:50.344Z,2.10
2023-03-15T08:48:48.257Z,3.17
2023-03-15T08:53:41.709Z,2.07
2023-03-15T08:58:34.738Z,1.93
2023-03-15T09:03:26.520Z,4.63
2023-03-15T09:08:21.045Z,3.40
2023-03-15T09:13:12.746Z,2.13
2023-03-15T09:18:06.055Z,3.10
2023-03-15T09:22:58.725Z,2.70
2023-03-15T09:27:51.740Z,4.17
2023-03-15T09:32:44.981Z,3.53
2023-03-15T09:37:37.442Z,2.60
2023-03-15T09:42:38.770Z,2.73
2023-03-15T09:47:52.122Z,3.97
2023-03-15T09:52:55.975Z,1.70
2023-03-15T10:09:05.664Z,2.63
2023-03-15T10:14:58.507Z,2.63
2023-03-15T10:20:03.765Z,3.77
2023-03-15T10:25:11.808Z,1.23
2023-03-15T10:30:22.820Z,1.93
2023-03-15T10:35:20.741Z,1.87
2023-03-15T10:40:16.329Z,1.40
2023-03-15T10:45:25.400Z,2.20
2023-03-15T10:50:33.229Z,1.17
2023-03-15T10:55:35.978Z,0.80
2023-03-15T11:00:37.031Z,2.43
2023-03-15T11:28:02.972Z,0.90
2023-03-15T11:33:11.914Z,1.57
2023-03-15T11:54:21.515Z,1.37
2023-03-15T11:59:40.672Z,0.70
2023-03-15T12:04:43.689Z,1.10
2023-03-15T12:09:36.541Z,1.97
2023-03-15T12:14:34.345Z,2.60
2023-03-15T12:19:28.104Z,0.70
2023-03-15T12:24:39.424Z,0.93
2023-03-15T12:29:38.152Z,0.43
2023-03-15T12:50:48.796Z,0.40
2023-03-15T12:55:50.050Z,0.80
2023-03-15T13:12:28.518Z,1.43
2023-03-15T13:29:22.987Z,1.30
2023-03-15T13:49:58.852Z,3.33
2023-03-15T14:05:29.420Z,1.33
2023-03-15T14:10:28.548Z,2.43
2023-03-15T14:15:45.940Z,2.93
2023-03-15T14:20:46.767Z,1.17
2023-03-15T15:02:02.192Z,0.93
2023-03-15T15:06:56.026Z,1.00
2023-03-15T15:32:19.298Z,1.60
2023-03-15T15:37:15.001Z,3.13
2023-03-15T15:47:19.128Z,1.47
2023-03-15T15:52:16.278Z,0.77
2023-03-15T15:57:13.004Z,0.53
2023-03-15T16:13:01.092Z,2.93
2023-03-15T16:54:08.755Z,0.10
2023-03-15T16:59:09.072Z,1.20
2023-03-15T17:04:02.908Z,0.27
2023-03-15T17:14:29.746Z,1.60
2023-03-15T17:19:21.798Z,2.87
2023-03-15T17:24:14.441Z,1.10
2023-03-15T17:39:20.613Z,4.17
2023-03-15T17:44:12.909Z,2.03
2023-03-15T17:49:08.764Z,2.53
2023-03-15T18:19:53.836Z,2.80
2023-03-15T18:30:16.488Z,1.10
2023-03-15T18:35:18.814Z,2.57
2023-03-15T18:55:48.277Z,2.00
2023-03-15T19:00:41.411Z,3.83
2023-03-15T19:05:36.816Z,2.67
2023-03-15T19:10:28.545Z,4.67
2023-03-15T19:15:22.095Z,4.57
2023-03-15T19:20:17.231Z,3.87
2023-03-15T19:25:14.059Z,5.50
2023-03-15T19:30:08.959Z,5.13
2023-03-15T19:35:04.724Z,2.97
2023-03-15T19:39:56.401Z,6.13
2023-03-15T19:44:49.285Z,6.50
2023-03-15T19:49:41.182Z,15.90
2023-03-15T19:54:33.965Z,5.13
2023-03-15T19:59:26.169Z,6.23
2023-03-15T20:04:17.979Z,6.37
2023-03-15T20:09:11.167Z,5.17
2023-03-15T20:14:04.734Z,5.20
2023-03-15T20:18:57.640Z,9.07
2023-03-15T20:23:53.882Z,5.50
2023-03-15T20:28:47.420Z,6.57
2023-03-15T20:33:39.860Z,3.97
2023-03-15T20:38:41.688Z,8.10
2023-03-15T20:43:34.304Z,5.23
2023-03-15T20:48:34.922Z,3.23
2023-03-15T20:58:32.797Z,1.97
2023-03-15T21:03:25.541Z,6.63
2023-03-15T21:08:17.774Z,3.57
2023-03-15T21:18:26.736Z,5.57
2023-03-15T21:23:20.535Z,6.43
2023-03-15T21:28:12.201Z,4.27
2023-03-15T21:33:04.870Z,3.97
2023-03-15T21:37:58.276Z,6.33
2023-03-15T21:42:50.856Z,4.97
2023-03-15T21:47:46.850Z,5.83
2023-03-15T21:52:38.825Z,8.77
2023-03-15T21:57:33.581Z,6.77
2023-03-15T22:07:35.728Z,6.47
2023-03-15T22:23:01.802Z,9.23
2023-03-15T22:27:53.769Z,3.30
2023-03-15T22:32:46.465Z,7.00
2023-03-15T22:37:38.206Z,4.47
2023-03-15T22:42:29.960Z,5.10
2023-03-15T22:47:21.685Z,4.87
2023-03-15T22:52:13.465Z,3.93
2023-03-15T22:57:05.149Z,5.07
2023-03-15T23:01:57.353Z,4.20
2023-03-15T23:06:50.559Z,5.80
2023-03-15T23:11:42.337Z,6.33
2023-03-15T23:16:34.186Z,13.37
2023-03-15T23:36:55.384Z,7.37
2023-03-15T23:41:50.655Z,8.87
2023-03-15T23:51:59.949Z,4.57
